Flight Track Log - Related Links

Times and Time Zones

All times are in EDT time to prevent confusion due to time zone crossing. See the TAM3444 flight status page for this flight to view local times or setup timezone preferences in your user account.


Time Position Orientation Groundspeed Altitude Reporting Facility
EDT Latitude Longitude Course Direction KTS MPH feet Rate Location/Type
Sat 06:41:00 AM -21.3170 -44.2887 327° Northwest  Level Estimated
Sat 06:42:00 AM -21.2547 -44.3318 327° Northwest  Level Estimated
Sat 06:43:00 AM -21.1924 -44.3748 327° Northwest  Level Estimated
Sat 06:44:00 AM -21.1301 -44.4178 327° Northwest  Level Estimated
Sat 06:45:00 AM -21.0677 -44.4608 327° Northwest  Level Estimated
Sat 06:46:00 AM -21.0054 -44.5037 327° Northwest  Level Estimated
Sat 06:47:00 AM -20.9430 -44.5466 327° Northwest  Level Estimated
Sat 06:48:00 AM -20.8807 -44.5895 327° Northwest  Level Estimated
Sat 06:49:00 AM -20.8183 -44.6323 327° Northwest  Level Estimated
Sat 06:50:00 AM -20.7559 -44.6751 327° Northwest  Level Estimated
Sat 06:51:00 AM -20.6935 -44.7178 327° Northwest  Level Estimated
Sat 06:52:00 AM -20.6311 -44.7606 327° Northwest  Level Estimated
Sat 06:53:00 AM -20.5687 -44.8032 327° Northwest  Level Estimated
Sat 06:54:00 AM -20.5062 -44.8459 327° Northwest  Level Estimated
Sat 06:55:00 AM -20.4438 -44.8885 327° Northwest  Level Estimated
Sat 06:56:00 AM -20.3813 -44.9311 327° Northwest  Level Estimated
Sat 06:57:00 AM -20.3189 -44.9736 327° Northwest  Level Estimated
Sat 06:58:00 AM -20.2564 -45.0161 327° Northwest  Level Estimated
Sat 06:59:00 AM -20.1939 -45.0586 327° Northwest  Level Estimated
Sat 07:00:00 AM -20.1314 -45.1010 327° Northwest  Level Estimated
Sat 07:01:00 AM -20.0689 -45.1434 327° Northwest  Level Estimated
Sat 07:02:00 AM -20.0064 -45.1858 328° Northwest  Level Estimated
Sat 07:03:00 AM -19.9439 -45.2281 328° Northwest  Level Estimated
Sat 07:04:00 AM -19.8814 -45.2705 328° Northwest  Level Estimated
Sat 07:05:00 AM -19.8188 -45.3127 328° Northwest  Level Estimated
Sat 07:06:00 AM -19.7563 -45.3550 328° Northwest  Level Estimated
Sat 07:07:00 AM -19.6937 -45.3972 328° Northwest  Level Estimated
Sat 07:08:00 AM -19.6312 -45.4393 328° Northwest  Level Estimated
Sat 07:09:00 AM -19.5686 -45.4815 328° Northwest  Level Estimated
Sat 07:10:00 AM -19.5060 -45.5236 328° Northwest  Level Estimated
Sat 07:11:00 AM -19.4434 -45.5657 328° Northwest  Level Estimated
Sat 07:12:00 AM -19.3808 -45.6077 328° Northwest  Level Estimated
Sat 07:13:00 AM -19.3182 -45.6497 328° Northwest  Level Estimated
Sat 07:14:00 AM -19.2555 -45.6917 328° Northwest  Level Estimated
Sat 07:15:00 AM -19.1929 -45.7336 328° Northwest  Level Estimated
Sat 07:16:00 AM -19.1302 -45.7755 328° Northwest  Level Estimated
Sat 07:17:00 AM -19.0676 -45.8174 328° Northwest  Level Estimated
Sat 07:18:00 AM -19.0049 -45.8593 328° Northwest  Level Estimated
Sat 07:19:00 AM -18.9422 -45.9011 328° Northwest  Level Estimated
Sat 07:20:00 AM -18.8795 -45.9429 328° Northwest  Level Estimated
Sat 07:21:00 AM -18.8168 -45.9846 328° Northwest  Level Estimated
Sat 07:22:00 AM -18.7541 -46.0263 328° Northwest  Level Estimated
Sat 07:23:00 AM -18.6914 -46.0680 328° Northwest  Level Estimated
Sat 07:24:00 AM -18.6287 -46.1097 328° Northwest  Level Estimated
Sat 07:25:00 AM -18.5659 -46.1513 328° Northwest  Level Estimated
Sat 07:26:00 AM -18.5032 -46.1929 328° Northwest  Level Estimated
Sat 07:27:00 AM -18.4405 -46.2345 328° Northwest  Level Estimated
Sat 07:28:00 AM -18.3777 -46.2760 328° Northwest  Level Estimated
Sat 07:29:00 AM -18.3149 -46.3175 328° Northwest  Level Estimated
Sat 07:30:00 AM -18.2521 -46.3590 328° Northwest  Level Estimated
Sat 07:31:00 AM -18.1894 -46.4005 328° Northwest  Level Estimated
Sat 07:32:00 AM -18.1266 -46.4419 328° Northwest  Level Estimated
Sat 07:33:00 AM -18.0637 -46.4833 328° Northwest  Level Estimated
Sat 07:34:00 AM -18.0009 -46.5246 328° Northwest  Level Estimated
Sat 07:35:00 AM -17.9381 -46.5660 328° Northwest  Level Estimated
Sat 07:36:00 AM -17.8753 -46.6073 328° Northwest  Level Estimated
Sat 07:37:00 AM -17.8124 -46.6485 328° Northwest  Level Estimated
Sat 07:38:00 AM -17.7496 -46.6898 328° Northwest  Level Estimated
Sat 07:39:00 AM -17.6867 -46.7310 328° Northwest  Level Estimated

Login

Don't have an account? Register now (free) for customized features, flight alerts, and more!